Saldanha — 9HFM9 — position and weather

sailwx.info

Track history (hours):
 
Tides and Currents Weather Stations Pressure Air Temp Water Temp Dewpoint Dewpoint Depression Visibility Wind Speed Wind Dir Waves Ship Positions

Saldanha

Last reported at 2018-Jun-22 19:00 UTC. Time now 2018-Jun-23 02:57 UTC.
Position N 50°54' W 142°30'.

Length 225 m; draft 11.8 m.

Type: Cargo ship. MMSI: 256913000.

Wind from 160 at 11 knots

Barometer 1030.0 mb
Air temperature 16.0 ° C
Visibility: greater than 5.4 NM
Dewpoint 13.0 ° C
Water temperature 11.0 ° C

Date/timePositionNaut miles runAvg speedWind from/ knotsBaromVisibWave heightAir tempDewpointWater temp
2018-Jun-22 19:00N 50°54' W 142°30'   160 / 111030.0 5.4 16.013.011.0
2018-Jun-20 08:18N 46°12' W 126°28'412.0
2018-Jun-20 07:59N 46°12' W 126°23'612.0
2018-Jun-20 07:30N 46°12' W 126°15'712.4
2018-Jun-20 06:59N 46°12' W 126°05'1712.6
2018-Jun-20 05:35N 46°12' W 125°40'112.5
2018-Jun-20 05:30N 46°12' W 125°39'612.4
2018-Jun-20 05:00N 46°12' W 125°30'612.4
2018-Jun-20 04:30N 46°12' W 125°21'612.4
2018-Jun-20 04:00N 46°12' W 125°12'912.5
2018-Jun-20 03:19N 46°12' W 124°59'412.7
2018-Jun-20 02:59N 46°12' W 124°53'612.6
2018-Jun-20 02:30N 46°12' W 124°45'612.5
2018-Jun-20 02:00N 46°12' W 124°36'612.5
2018-Jun-20 01:30N 46°12' W 124°27'612.4
2018-Jun-20 01:00N 46°12' W 124°18'611.8
2018-Jun-20 00:29N 46°13' W 124°09'4 8.8
2018-Jun-20 00:00N 46°15' W 124°04'4 7.6
2018-Jun-19 23:30N 46°14' W 123°59'4 8.1
2018-Jun-19 23:00N 46°11' W 123°54'4 8.1
2018-Jun-19 22:30N 46°12' W 123°48'4 8.4
2018-Jun-19 22:00N 46°14' W 123°43'910.0
2018-Jun-19 21:09N 46°16' W 123°31'2 9.3
2018-Jun-19 20:55N 46°16' W 123°28'4 9.8
2018-Jun-19 20:30N 46°12' W 123°26'5 9.5
2018-Jun-19 20:01N 46°09' W 123°21'611.1
2018-Jun-19 19:30N 46°10' W 123°14'510.7
2018-Jun-19 19:00N 46°10' W 123°06'611.4
2018-Jun-19 18:31N 46°07' W 122°59'7 9.1
2018-Jun-19 17:45N 46°02' W 122°53'2 9.5
2018-Jun-19 17:31N 46°00' W 122°51'5 9.5
2018-Jun-19 17:00N 45°56' W 122°48'8 9.1
2018-Jun-19 16:07N 45°48' W 122°47'111.4
2018-Jun-19 16:01N 45°47' W 122°46'510.8
2018-Jun-19 15:30N 45°41' W 122°47'4 7.1
2018-Jun-19 15:00N 45°38' W 122°43'0 0.2
2018-Jun-19 13:40N 45°38' W 122°43'0 0.0
2018-Jun-19 13:25N 45°38' W 122°43'0 0.0
2018-Jun-19 12:55N 45°38' W 122°43'0 0.0
2018-Jun-19 12:28N 45°38' W 122°43'0 0.0
2018-Jun-19 11:25N 45°38' W 122°43'0 0.0
2018-Jun-19 10:58N 45°38' W 122°43'0 0.0
2018-Jun-19 10:28N 45°38' W 122°43'0 0.0
2018-Jun-19 09:58N 45°38' W 122°43'0 0.0
2018-Jun-19 09:25N 45°38' W 122°43'0 0.0
2018-Jun-19 08:52N 45°38' W 122°43'0 0.0
2018-Jun-19 08:25N 45°38' W 122°43'0 0.0
2018-Jun-19 07:49N 45°38' W 122°43'0 0.0
2018-Jun-19 07:22N 45°38' W 122°43'0 0.0
2018-Jun-19 06:58N 45°38' W 122°43'0 0.0
2018-Jun-19 06:28N 45°38' W 122°43'0 0.0
2018-Jun-19 05:58N 45°38' W 122°43'0 0.0
2018-Jun-19 05:28N 45°38' W 122°43'0 0.0
2018-Jun-19 04:58N 45°38' W 122°43'0 0.0
2018-Jun-19 04:30N 45°38' W 122°43'1 2.8
2018-Jun-19 04:00N 45°39' W 122°45'2 3.2
2018-Jun-19 03:30N 45°38' W 122°47'3 5.5
2018-Jun-19 03:00N 45°36' W 122°46'3 6.8
2018-Jun-19 02:30N 45°33' W 122°43'2 4.1
2018-Jun-19 02:00N 45°32' W 122°41'0 0.1
2018-Jun-19 01:28N 45°32' W 122°41'0 0.0
2018-Jun-19 00:55N 45°32' W 122°41'0 0.0
2018-Jun-19 00:28N 45°32' W 122°41'0 0.0
2018-Jun-18 23:58N 45°32' W 122°41'0 0.0
2018-Jun-18 23:28N 45°32' W 122°41'0 0.0
2018-Jun-18 22:58N 45°32' W 122°41'0 0.0
2018-Jun-18 22:25N 45°32' W 122°41'0 0.0
2018-Jun-18 21:55N 45°32' W 122°41'0 0.0
2018-Jun-18 21:30N 45°32' W 122°41'0 0.0
2018-Jun-18 20:58N 45°32' W 122°41'0 0.0
2018-Jun-18 20:28N 45°32' W 122°41'0 0.0
2018-Jun-18 19:58N 45°32' W 122°41'0 0.0
2018-Jun-18 19:25N 45°32' W 122°41'0 0.0
2018-Jun-18 18:58N 45°32' W 122°41'0 0.0
2018-Jun-18 18:28N 45°32' W 122°41'0 0.0
2018-Jun-18 17:49N 45°32' W 122°41'0 0.0
2018-Jun-18 17:25N 45°32' W 122°41'0 0.0
2018-Jun-18 16:55N 45°32' W 122°41'0 0.0
2018-Jun-18 16:28N 45°32' W 122°41'0 0.0
2018-Jun-18 15:58N 45°32' W 122°41'0 0.0
2018-Jun-18 15:28N 45°32' W 122°41'0 0.0
2018-Jun-18 14:58N 45°32' W 122°41'0 0.1
2018-Jun-18 14:28N 45°32' W 122°41'0 0.0
2018-Jun-18 13:58N 45°32' W 122°41'0 0.0
2018-Jun-18 13:28N 45°32' W 122°41'0 0.0
2018-Jun-18 12:58N 45°32' W 122°41'0 0.0
2018-Jun-18 12:28N 45°32' W 122°41'0 0.0
2018-Jun-18 11:55N 45°32' W 122°41'0 0.0
2018-Jun-18 11:25N 45°32' W 122°41'0 0.0
2018-Jun-18 10:55N 45°32' W 122°41'0 0.0
2018-Jun-18 10:25N 45°32' W 122°41'0 0.0
2018-Jun-18 09:58N 45°32' W 122°41'0 0.0
2018-Jun-18 09:25N 45°32' W 122°41'0 0.0
2018-Jun-18 08:58N 45°32' W 122°41'0 0.0
2018-Jun-18 08:28N 45°32' W 122°41'0 0.0
2018-Jun-18 07:58N 45°32' W 122°41'0 0.0
2018-Jun-18 07:25N 45°32' W 122°41'0 0.0
2018-Jun-18 06:58N 45°32' W 122°41'0 0.0
2018-Jun-18 06:25N 45°32' W 122°41'0 0.0
2018-Jun-18 05:58N 45°32' W 122°41'0 0.0
2018-Jun-18 05:25N 45°32' W 122°41'0 0.0
2018-Jun-18 04:58N 45°32' W 122°41'0 0.0
2018-Jun-18 04:28N 45°32' W 122°41'0 0.0
2018-Jun-18 03:55N 45°32' W 122°41'0 0.0
2018-Jun-18 03:25N 45°32' W 122°41'0 0.0
2018-Jun-18 02:58N 45°32' W 122°41'0 0.0
2018-Jun-18 02:01N 45°32' W 122°41'0 0.1
2018-Jun-18 01:55N 45°32' W 122°41'0 0.0
2018-Jun-18 01:25N 45°32' W 122°41'0 0.0
2018-Jun-18 00:55N 45°32' W 122°41'0 0.0
2018-Jun-18 00:25N 45°32' W 122°41'0 0.0
2018-Jun-17 23:55N 45°32' W 122°41'0 0.0
2018-Jun-17 23:25N 45°32' W 122°41'0 0.0
2018-Jun-17 22:43N 45°32' W 122°41'0 0.0
2018-Jun-17 22:22N 45°32' W 122°41'0 0.0
2018-Jun-17 21:52N 45°32' W 122°41'0 0.0
2018-Jun-17 21:25N 45°32' W 122°41'0 0.0
2018-Jun-17 20:55N 45°32' W 122°41'0 0.0
2018-Jun-17 20:25N 45°32' W 122°41'0 0.0
2018-Jun-17 19:58N 45°32' W 122°41'0 0.0
2018-Jun-17 19:28N 45°32' W 122°41'0 0.0
2018-Jun-17 18:58N 45°32' W 122°41'0 0.0
2018-Jun-17 18:22N 45°32' W 122°41'0 0.0
2018-Jun-17 17:55N 45°32' W 122°41'0 0.0
2018-Jun-17 17:28N 45°32' W 122°41'0 0.0
2018-Jun-17 16:58N 45°32' W 122°41'0 0.1
2018-Jun-17 16:28N 45°32' W 122°41'0 0.0
2018-Jun-17 15:55N 45°32' W 122°41'0 0.0
2018-Jun-17 15:28N 45°32' W 122°41'0 0.0
2018-Jun-17 14:58N 45°32' W 122°41'0 0.0
2018-Jun-17 14:28N 45°32' W 122°41'0 0.0
2018-Jun-17 13:58N 45°32' W 122°41'0 0.0
2018-Jun-17 13:22N 45°32' W 122°41'0 0.0
2018-Jun-17 12:58N 45°32' W 122°41'0 0.0
2018-Jun-17 12:25N 45°32' W 122°41'0 0.0
2018-Jun-17 11:58N 45°32' W 122°41'0 0.0
2018-Jun-17 11:28N 45°32' W 122°41'0 0.0
2018-Jun-17 10:55N 45°32' W 122°41'0 0.0
2018-Jun-17 10:28N 45°32' W 122°41'0 0.0
2018-Jun-17 09:43N 45°32' W 122°41'0 0.0
2018-Jun-17 09:22N 45°32' W 122°41'0 0.0
2018-Jun-17 08:55N 45°32' W 122°41'0 0.0
2018-Jun-17 08:28N 45°32' W 122°41'0 0.0
2018-Jun-17 07:58N 45°32' W 122°41'0 0.0
2018-Jun-17 07:25N 45°32' W 122°41'0 0.0
2018-Jun-17 06:46N 45°32' W 122°41'0 0.0
2018-Jun-17 06:22N 45°32' W 122°41'0 0.0
2018-Jun-17 05:58N 45°32' W 122°41'0 0.0
2018-Jun-17 05:28N 45°32' W 122°41'0 0.0
2018-Jun-17 04:58N 45°32' W 122°41'0 0.0
2018-Jun-17 04:25N 45°32' W 122°41'0 0.0
2018-Jun-17 03:55N 45°32' W 122°41'0 0.0
2018-Jun-17 03:28N 45°32' W 122°41'0 0.0
2018-Jun-17 02:49N 45°32' W 122°41'0 0.0
2018-Jun-17 02:25N 45°32' W 122°41'0 0.0
2018-Jun-17 01:37N 45°32' W 122°41'0 0.0
2018-Jun-17 01:28N 45°32' W 122°41'0 0.0
2018-Jun-17 00:55N 45°32' W 122°41'0 0.0
2018-Jun-17 00:25N 45°32' W 122°41'0 0.0
2018-Jun-16 23:58N 45°32' W 122°41'0 0.0
2018-Jun-16 23:28N 45°32' W 122°41'0 0.0
2018-Jun-16 22:58N 45°32' W 122°41'0 0.0
2018-Jun-16 22:28N 45°32' W 122°41'0 0.0
2018-Jun-16 21:55N 45°32' W 122°41'0 0.0
2018-Jun-16 21:28N 45°32' W 122°41'0 0.0
2018-Jun-16 20:58N 45°32' W 122°41'0 0.0
2018-Jun-16 20:25N 45°32' W 122°41'0 0.0
2018-Jun-16 19:58N 45°32' W 122°41'0 0.0
2018-Jun-16 19:28N 45°32' W 122°41'0 0.0
2018-Jun-16 18:58N 45°32' W 122°41'0 0.0
2018-Jun-16 18:28N 45°32' W 122°41'0 0.1
2018-Jun-16 17:55N 45°32' W 122°41'0 0.1
2018-Jun-16 17:28N 45°32' W 122°41'0 0.0
2018-Jun-16 16:55N 45°32' W 122°41'0 0.0
2018-Jun-16 16:25N 45°32' W 122°41'0 0.0
2018-Jun-16 15:58N 45°32' W 122°41'0 0.0
2018-Jun-16 15:28N 45°32' W 122°41'0 0.0
2018-Jun-16 14:55N 45°32' W 122°41'0 0.0
2018-Jun-16 14:28N 45°32' W 122°41'0 0.0
2018-Jun-16 13:58N 45°32' W 122°41'0 0.0
2018-Jun-16 13:28N 45°32' W 122°41'0 0.0
2018-Jun-16 12:58N 45°32' W 122°41'0 0.0
2018-Jun-16 12:28N 45°32' W 122°41'0 0.0
2018-Jun-16 11:55N 45°32' W 122°41'0 0.0
2018-Jun-16 11:28N 45°32' W 122°41'0 0.0
2018-Jun-16 10:58N 45°32' W 122°41'0 0.0
2018-Jun-16 10:25N 45°32' W 122°41'0 0.0
2018-Jun-16 09:58N 45°32' W 122°41'0 0.0
2018-Jun-16 09:28N 45°32' W 122°41'0 0.0
2018-Jun-16 08:58N 45°32' W 122°41'0 0.0
2018-Jun-16 08:25N 45°32' W 122°41'0 0.0
2018-Jun-16 07:55N 45°32' W 122°41'0 0.0
2018-Jun-16 07:25N 45°32' W 122°41'0 0.0
2018-Jun-16 06:58N 45°32' W 122°41'0 0.0
2018-Jun-16 06:28N 45°32' W 122°41'0 0.0
2018-Jun-16 05:58N 45°32' W 122°41'0 0.0
2018-Jun-16 05:28N 45°32' W 122°41'0 0.0
2018-Jun-16 04:55N 45°32' W 122°41'0 0.0
2018-Jun-16 04:25N 45°32' W 122°41'0 0.0
2018-Jun-16 03:55N 45°32' W 122°41'0 0.0
2018-Jun-16 03:28N 45°32' W 122°41'0 0.0
2018-Jun-16 02:58N 45°32' W 122°41'0 0.0
2018-Jun-16 02:28N 45°32' W 122°41'0 0.0
2018-Jun-16 01:55N 45°32' W 122°41'0 0.0
2018-Jun-16 01:28N 45°32' W 122°41'0 0.0
2018-Jun-16 00:58N 45°32' W 122°41'0 0.0
2018-Jun-16 00:25N 45°32' W 122°41'0 0.0
2018-Jun-15 23:58N 45°32' W 122°41'0 0.0
2018-Jun-15 23:28N 45°32' W 122°41'0 0.0
2018-Jun-15 22:55N 45°32' W 122°41'0 0.0
2018-Jun-15 22:28N 45°32' W 122°41'0 0.0
2018-Jun-15 21:58N 45°32' W 122°41'0 0.0
2018-Jun-15 21:25N 45°32' W 122°41'0 0.0
2018-Jun-15 20:58N 45°32' W 122°41'0 0.0
2018-Jun-15 20:25N 45°32' W 122°41'0 0.0
2018-Jun-15 19:49N 45°32' W 122°41'0 0.0
2018-Jun-15 19:25N 45°32' W 122°41'0 0.0
2018-Jun-15 18:55N 45°32' W 122°41'0 0.0
2018-Jun-15 18:22N 45°32' W 122°41'0 0.0
2018-Jun-15 17:55N 45°32' W 122°41'0 0.0
2018-Jun-15 17:25N 45°32' W 122°41'0 0.0
2018-Jun-15 16:55N 45°32' W 122°41'0 0.0
2018-Jun-15 16:28N 45°32' W 122°41'0 0.0
2018-Jun-15 15:55N 45°32' W 122°41'0 0.0
2018-Jun-15 15:28N 45°32' W 122°41'0 0.0
2018-Jun-15 14:58N 45°32' W 122°41'0 0.0
2018-Jun-15 14:28N 45°32' W 122°41'0 0.0
2018-Jun-15 13:55N 45°32' W 122°41'0 0.0
2018-Jun-15 13:28N 45°32' W 122°41'0 0.0
2018-Jun-15 12:58N 45°32' W 122°41'0 0.0
2018-Jun-15 12:28N 45°32' W 122°41'0 0.0
2018-Jun-15 11:55N 45°32' W 122°41'0 0.0
2018-Jun-15 11:28N 45°32' W 122°41'0 0.0
2018-Jun-15 10:58N 45°32' W 122°41'0 0.0
2018-Jun-15 10:25N 45°32' W 122°41'0 0.0
2018-Jun-15 09:55N 45°32' W 122°41'0 0.0
2018-Jun-15 09:28N 45°32' W 122°41'0 0.0
2018-Jun-15 08:55N 45°32' W 122°41'0 0.0
2018-Jun-15 08:28N 45°32' W 122°41'0 0.0
2018-Jun-15 07:58N 45°32' W 122°41'0 0.0
2018-Jun-15 07:25N 45°32' W 122°41'0 0.0
2018-Jun-15 06:55N 45°32' W 122°41'0 0.0
2018-Jun-15 06:25N 45°32' W 122°41'0 0.0
2018-Jun-15 05:58N 45°32' W 122°41'0 0.0
2018-Jun-15 05:25N 45°32' W 122°41'0 0.0
2018-Jun-15 04:55N 45°32' W 122°41'0 0.0
2018-Jun-15 04:28N 45°32' W 122°41'0 0.0
2018-Jun-15 03:58N 45°32' W 122°41'0 0.0
2018-Jun-15 03:25N 45°32' W 122°41'0 0.0
2018-Jun-15 02:58N 45°32' W 122°41'0 0.0
2018-Jun-15 02:28N 45°32' W 122°41'0 0.0
2018-Jun-15 01:55N 45°32' W 122°41'0 0.0
2018-Jun-15 01:25N 45°32' W 122°41'0 0.0
2018-Jun-15 00:55N 45°32' W 122°41'0 0.0
2018-Jun-15 00:28N 45°32' W 122°41'0 0.0
2018-Jun-14 23:49N 45°32' W 122°41'0 0.0
2018-Jun-14 23:25N 45°32' W 122°41'0 0.0
2018-Jun-14 22:58N 45°32' W 122°41'0 0.0
2018-Jun-14 22:22N 45°32' W 122°41'0 0.0
2018-Jun-14 21:58N 45°32' W 122°41'0 0.0
2018-Jun-14 21:22N 45°32' W 122°41'0 0.0
2018-Jun-14 20:58N 45°32' W 122°41'0 0.0
2018-Jun-14 20:28N 45°32' W 122°41'0 0.0
2018-Jun-14 19:55N 45°32' W 122°41'0 0.0
2018-Jun-14 19:28N 45°32' W 122°41'0 0.0
2018-Jun-14 18:55N 45°32' W 122°41'0 0.0
2018-Jun-14 18:25N 45°32' W 122°41'0 0.0
2018-Jun-14 17:55N 45°32' W 122°41'0 0.0
2018-Jun-14 17:28N 45°32' W 122°41'0 0.0
2018-Jun-14 16:55N 45°32' W 122°41'0 0.0
2018-Jun-14 16:25N 45°32' W 122°41'0 0.0
2018-Jun-14 15:58N 45°32' W 122°41'0 0.0
2018-Jun-14 15:25N 45°32' W 122°41'0 0.0
2018-Jun-14 14:55N 45°32' W 122°41'0 0.0
2018-Jun-14 14:25N 45°32' W 122°41'0 0.0
2018-Jun-14 13:58N 45°32' W 122°41'0 0.0
2018-Jun-14 13:25N 45°32' W 122°41'0 0.0
2018-Jun-14 12:58N 45°32' W 122°41'0 0.0
2018-Jun-14 12:28N 45°32' W 122°41'0 0.0
2018-Jun-14 11:58N 45°32' W 122°41'0 0.0
2018-Jun-14 11:25N 45°32' W 122°41'0 0.0
2018-Jun-14 10:55N 45°32' W 122°41'0 0.0
2018-Jun-14 10:25N 45°32' W 122°41'0 0.0
2018-Jun-14 09:55N 45°32' W 122°41'0 0.0
2018-Jun-14 09:28N 45°32' W 122°41'0 0.0
2018-Jun-14 08:58N 45°32' W 122°41'0 0.0
2018-Jun-14 08:28N 45°32' W 122°41'0 0.0
2018-Jun-14 07:55N 45°32' W 122°41'0 0.0
2018-Jun-14 07:28N 45°32' W 122°41'0 0.0
2018-Jun-14 06:58N 45°32' W 122°41'0 0.0
2018-Jun-14 06:28N 45°32' W 122°41'0 0.0
2018-Jun-14 05:55N 45°32' W 122°41'0 0.0
2018-Jun-14 05:25N 45°32' W 122°41'0 0.0
2018-Jun-14 04:58N 45°32' W 122°41'0 0.0
2018-Jun-14 04:28N 45°32' W 122°41'0 0.0
2018-Jun-14 03:58N 45°32' W 122°41'0 0.0
2018-Jun-14 03:25N 45°32' W 122°41'0 0.0
2018-Jun-14 02:55N 45°32' W 122°41'0 0.0
2018-Jun-14 02:25N 45°32' W 122°41'0 0.0
2018-Jun-14 01:55N 45°32' W 122°41'0 0.0
2018-Jun-14 01:28N 45°32' W 122°41'0 0.0
2018-Jun-14 00:55N 45°32' W 122°41'0 0.0
2018-Jun-14 00:28N 45°32' W 122°41'0 0.0
2018-Jun-13 23:58N 45°32' W 122°41'0 0.0
2018-Jun-13 23:28N 45°32' W 122°41'0 0.0
2018-Jun-13 22:55N 45°32' W 122°41'0 0.0
2018-Jun-13 22:25N 45°32' W 122°41'0 0.0
2018-Jun-13 21:58N 45°32' W 122°41'0 0.0
2018-Jun-13 21:25N 45°32' W 122°41'0 0.0
2018-Jun-13 20:58N 45°32' W 122°41'0 0.0
2018-Jun-13 20:25N 45°32' W 122°41'0 0.0
2018-Jun-13 19:58N 45°32' W 122°41'0 0.0
2018-Jun-13 19:28N 45°32' W 122°41'0 0.0
2018-Jun-13 18:58N 45°32' W 122°41'0 0.0
2018-Jun-13 18:25N 45°32' W 122°41'0 0.0
2018-Jun-13 17:55N 45°32' W 122°41'0 0.0
2018-Jun-13 17:25N 45°32' W 122°41'0 0.0
2018-Jun-13 16:55N 45°32' W 122°41'0 0.0
2018-Jun-13 16:28N 45°32' W 122°41'0 0.0
2018-Jun-13 15:55N 45°32' W 122°41'0 0.0
2018-Jun-13 15:28N 45°32' W 122°41'0 0.0
2018-Jun-13 14:58N 45°32' W 122°41'0 0.0
2018-Jun-13 14:28N 45°32' W 122°41'0 0.0
2018-Jun-13 13:55N 45°32' W 122°41'0 0.0
2018-Jun-13 13:28N 45°32' W 122°41'0 0.0
2018-Jun-13 12:55N 45°32' W 122°41'0 0.0
2018-Jun-13 12:28N 45°32' W 122°41'0 0.0
2018-Jun-13 11:55N 45°32' W 122°41'0 0.0
2018-Jun-13 11:28N 45°32' W 122°41'0 0.0
2018-Jun-13 10:55N 45°32' W 122°41'0 0.0
2018-Jun-13 10:25N 45°32' W 122°41'0 0.0
2018-Jun-13 09:55N 45°32' W 122°41'0 0.0
2018-Jun-13 09:25N 45°32' W 122°41'0 0.0
2018-Jun-13 08:55N 45°32' W 122°41'0 0.0
2018-Jun-13 08:28N 45°32' W 122°41'0 0.0
2018-Jun-13 07:58N 45°32' W 122°41'0 0.0
2018-Jun-13 07:25N 45°32' W 122°41'0 0.0
2018-Jun-13 06:55N 45°32' W 122°41'0 0.0
2018-Jun-13 06:25N 45°32' W 122°41'0 0.0
2018-Jun-13 05:55N 45°32' W 122°41'0 0.0
2018-Jun-13 05:28N 45°32' W 122°41'0 0.0
2018-Jun-13 04:55N 45°32' W 122°41'0 0.0
2018-Jun-13 04:28N 45°32' W 122°41'0 0.0
2018-Jun-13 03:55N 45°32' W 122°41'0 0.0
2018-Jun-13 03:25N 45°32' W 122°41'0 0.0
2018-Jun-13 02:58N 45°32' W 122°41'0 0.0
2018-Jun-13 02:25N 45°32' W 122°41'0 0.0
2018-Jun-13 01:55N 45°32' W 122°41'0 0.0
2018-Jun-13 01:25N 45°32' W 122°41'0 0.0
2018-Jun-13 00:55N 45°32' W 122°41'0 0.0
2018-Jun-13 00:25N 45°32' W 122°41'0 0.0
2018-Jun-12 23:58N 45°32' W 122°41'0 0.0
2018-Jun-12 23:28N 45°32' W 122°41'0 0.0
2018-Jun-12 22:55N 45°32' W 122°41'0 0.0
2018-Jun-12 22:28N 45°32' W 122°41'0 0.0
2018-Jun-12 21:58N 45°32' W 122°41'0 0.0
2018-Jun-12 21:25N 45°32' W 122°41'0 0.0
2018-Jun-12 20:58N 45°32' W 122°41'0 0.0
2018-Jun-12 20:28N 45°32' W 122°41'0 0.0
2018-Jun-12 19:55N 45°32' W 122°41'0 0.0
2018-Jun-12 19:28N 45°32' W 122°41'  
Track history (hours):
 
Tides and Currents Weather Stations Pressure Air Temp Water Temp Dewpoint Dewpoint Depression Visibility Wind Speed Wind Dir Waves Ship Positions

Saldanha

Last reported at 2018-Jun-22 19:00 UTC. Time now 2018-Jun-23 02:57 UTC.
Position N 50°54' W 142°30'.

Length 225 m; draft 11.8 m.

Type: Cargo ship. MMSI: 256913000.

Wind from 160 at 11 knots

Barometer 1030.0 mb
Air temperature 16.0 ° C
Visibility: greater than 5.4 NM
Dewpoint 13.0 ° C
Water temperature 11.0 ° C

Date/timePositionNaut miles runAvg speedWind from/ knotsBaromVisibWave heightAir tempDewpointWater temp
2018-Jun-22 19:00N 50°54' W 142°30'   160 / 111030.0 5.4 16.013.011.0
2018-Jun-20 08:18N 46°12' W 126°28'412.0
2018-Jun-20 07:59N 46°12' W 126°23'612.0
2018-Jun-20 07:30N 46°12' W 126°15'712.4
2018-Jun-20 06:59N 46°12' W 126°05'1712.6
2018-Jun-20 05:35N 46°12' W 125°40'112.5
2018-Jun-20 05:30N 46°12' W 125°39'612.4
2018-Jun-20 05:00N 46°12' W 125°30'612.4
2018-Jun-20 04:30N 46°12' W 125°21'612.4
2018-Jun-20 04:00N 46°12' W 125°12'912.5
2018-Jun-20 03:19N 46°12' W 124°59'412.7
2018-Jun-20 02:59N 46°12' W 124°53'612.6
2018-Jun-20 02:30N 46°12' W 124°45'612.5
2018-Jun-20 02:00N 46°12' W 124°36'612.5
2018-Jun-20 01:30N 46°12' W 124°27'612.4
2018-Jun-20 01:00N 46°12' W 124°18'611.8
2018-Jun-20 00:29N 46°13' W 124°09'4 8.8
2018-Jun-20 00:00N 46°15' W 124°04'4 7.6
2018-Jun-19 23:30N 46°14' W 123°59'4 8.1
2018-Jun-19 23:00N 46°11' W 123°54'4 8.1
2018-Jun-19 22:30N 46°12' W 123°48'4 8.4
2018-Jun-19 22:00N 46°14' W 123°43'910.0
2018-Jun-19 21:09N 46°16' W 123°31'2 9.3
2018-Jun-19 20:55N 46°16' W 123°28'4 9.8
2018-Jun-19 20:30N 46°12' W 123°26'5 9.5
2018-Jun-19 20:01N 46°09' W 123°21'611.1
2018-Jun-19 19:30N 46°10' W 123°14'510.7
2018-Jun-19 19:00N 46°10' W 123°06'611.4
2018-Jun-19 18:31N 46°07' W 122°59'7 9.1
2018-Jun-19 17:45N 46°02' W 122°53'2 9.5
2018-Jun-19 17:31N 46°00' W 122°51'5 9.5
2018-Jun-19 17:00N 45°56' W 122°48'8 9.1
2018-Jun-19 16:07N 45°48' W 122°47'111.4
2018-Jun-19 16:01N 45°47' W 122°46'510.8
2018-Jun-19 15:30N 45°41' W 122°47'4 7.1
2018-Jun-19 15:00N 45°38' W 122°43'0 0.2
2018-Jun-19 13:40N 45°38' W 122°43'0 0.0
2018-Jun-19 13:25N 45°38' W 122°43'0 0.0
2018-Jun-19 12:55N 45°38' W 122°43'0 0.0
2018-Jun-19 12:28N 45°38' W 122°43'0 0.0
2018-Jun-19 11:25N 45°38' W 122°43'0 0.0
2018-Jun-19 10:58N 45°38' W 122°43'0 0.0
2018-Jun-19 10:28N 45°38' W 122°43'0 0.0
2018-Jun-19 09:58N 45°38' W 122°43'0 0.0
2018-Jun-19 09:25N 45°38' W 122°43'0 0.0
2018-Jun-19 08:52N 45°38' W 122°43'0 0.0
2018-Jun-19 08:25N 45°38' W 122°43'0 0.0
2018-Jun-19 07:49N 45°38' W 122°43'0 0.0
2018-Jun-19 07:22N 45°38' W 122°43'0 0.0
2018-Jun-19 06:58N 45°38' W 122°43'0 0.0
2018-Jun-19 06:28N 45°38' W 122°43'0 0.0
2018-Jun-19 05:58N 45°38' W 122°43'0 0.0
2018-Jun-19 05:28N 45°38' W 122°43'0 0.0
2018-Jun-19 04:58N 45°38' W 122°43'0 0.0
2018-Jun-19 04:30N 45°38' W 122°43'1 2.8
2018-Jun-19 04:00N 45°39' W 122°45'2 3.2
2018-Jun-19 03:30N 45°38' W 122°47'3 5.5
2018-Jun-19 03:00N 45°36' W 122°46'3 6.8
2018-Jun-19 02:30N 45°33' W 122°43'2 4.1
2018-Jun-19 02:00N 45°32' W 122°41'0 0.1
2018-Jun-19 01:28N 45°32' W 122°41'0 0.0
2018-Jun-19 00:55N 45°32' W 122°41'0 0.0
2018-Jun-19 00:28N 45°32' W 122°41'0 0.0
2018-Jun-18 23:58N 45°32' W 122°41'0 0.0
2018-Jun-18 23:28N 45°32' W 122°41'0 0.0
2018-Jun-18 22:58N 45°32' W 122°41'0 0.0
2018-Jun-18 22:25N 45°32' W 122°41'0 0.0
2018-Jun-18 21:55N 45°32' W 122°41'0 0.0
2018-Jun-18 21:30N 45°32' W 122°41'0 0.0
2018-Jun-18 20:58N 45°32' W 122°41'0 0.0
2018-Jun-18 20:28N 45°32' W 122°41'0 0.0
2018-Jun-18 19:58N 45°32' W 122°41'0 0.0
2018-Jun-18 19:25N 45°32' W 122°41'0 0.0
2018-Jun-18 18:58N 45°32' W 122°41'0 0.0
2018-Jun-18 18:28N 45°32' W 122°41'0 0.0
2018-Jun-18 17:49N 45°32' W 122°41'0 0.0
2018-Jun-18 17:25N 45°32' W 122°41'0 0.0
2018-Jun-18 16:55N 45°32' W 122°41'0 0.0
2018-Jun-18 16:28N 45°32' W 122°41'0 0.0
2018-Jun-18 15:58N 45°32' W 122°41'0 0.0
2018-Jun-18 15:28N 45°32' W 122°41'0 0.0
2018-Jun-18 14:58N 45°32' W 122°41'0 0.1
2018-Jun-18 14:28N 45°32' W 122°41'0 0.0
2018-Jun-18 13:58N 45°32' W 122°41'0 0.0
2018-Jun-18 13:28N 45°32' W 122°41'0 0.0
2018-Jun-18 12:58N 45°32' W 122°41'0 0.0
2018-Jun-18 12:28N 45°32' W 122°41'0 0.0
2018-Jun-18 11:55N 45°32' W 122°41'0 0.0
2018-Jun-18 11:25N 45°32' W 122°41'0 0.0
2018-Jun-18 10:55N 45°32' W 122°41'0 0.0
2018-Jun-18 10:25N 45°32' W 122°41'0 0.0
2018-Jun-18 09:58N 45°32' W 122°41'0 0.0
2018-Jun-18 09:25N 45°32' W 122°41'0 0.0
2018-Jun-18 08:58N 45°32' W 122°41'0 0.0
2018-Jun-18 08:28N 45°32' W 122°41'0 0.0
2018-Jun-18 07:58N 45°32' W 122°41'0 0.0
2018-Jun-18 07:25N 45°32' W 122°41'0 0.0
2018-Jun-18 06:58N 45°32' W 122°41'0 0.0
2018-Jun-18 06:25N 45°32' W 122°41'0 0.0
2018-Jun-18 05:58N 45°32' W 122°41'0 0.0
2018-Jun-18 05:25N 45°32' W 122°41'0 0.0
2018-Jun-18 04:58N 45°32' W 122°41'0 0.0
2018-Jun-18 04:28N 45°32' W 122°41'0 0.0
2018-Jun-18 03:55N 45°32' W 122°41'0 0.0
2018-Jun-18 03:25N 45°32' W 122°41'0 0.0
2018-Jun-18 02:58N 45°32' W 122°41'0 0.0
2018-Jun-18 02:01N 45°32' W 122°41'0 0.1
2018-Jun-18 01:55N 45°32' W 122°41'0 0.0
2018-Jun-18 01:25N 45°32' W 122°41'0 0.0
2018-Jun-18 00:55N 45°32' W 122°41'0 0.0
2018-Jun-18 00:25N 45°32' W 122°41'0 0.0
2018-Jun-17 23:55N 45°32' W 122°41'0 0.0
2018-Jun-17 23:25N 45°32' W 122°41'0 0.0
2018-Jun-17 22:43N 45°32' W 122°41'0 0.0
2018-Jun-17 22:22N 45°32' W 122°41'0 0.0
2018-Jun-17 21:52N 45°32' W 122°41'0 0.0
2018-Jun-17 21:25N 45°32' W 122°41'0 0.0
2018-Jun-17 20:55N 45°32' W 122°41'0 0.0
2018-Jun-17 20:25N 45°32' W 122°41'0 0.0
2018-Jun-17 19:58N 45°32' W 122°41'0 0.0
2018-Jun-17 19:28N 45°32' W 122°41'0 0.0
2018-Jun-17 18:58N 45°32' W 122°41'0 0.0
2018-Jun-17 18:22N 45°32' W 122°41'0 0.0
2018-Jun-17 17:55N 45°32' W 122°41'0 0.0
2018-Jun-17 17:28N 45°32' W 122°41'0 0.0
2018-Jun-17 16:58N 45°32' W 122°41'0 0.1
2018-Jun-17 16:28N 45°32' W 122°41'0 0.0
2018-Jun-17 15:55N 45°32' W 122°41'0 0.0
2018-Jun-17 15:28N 45°32' W 122°41'0 0.0
2018-Jun-17 14:58N 45°32' W 122°41'0 0.0
2018-Jun-17 14:28N 45°32' W 122°41'0 0.0
2018-Jun-17 13:58N 45°32' W 122°41'0 0.0
2018-Jun-17 13:22N 45°32' W 122°41'0 0.0
2018-Jun-17 12:58N 45°32' W 122°41'0 0.0
2018-Jun-17 12:25N 45°32' W 122°41'0 0.0
2018-Jun-17 11:58N 45°32' W 122°41'0 0.0
2018-Jun-17 11:28N 45°32' W 122°41'0 0.0
2018-Jun-17 10:55N 45°32' W 122°41'0 0.0
2018-Jun-17 10:28N 45°32' W 122°41'0 0.0
2018-Jun-17 09:43N 45°32' W 122°41'0 0.0
2018-Jun-17 09:22N 45°32' W 122°41'0 0.0
2018-Jun-17 08:55N 45°32' W 122°41'0 0.0
2018-Jun-17 08:28N 45°32' W 122°41'0 0.0
2018-Jun-17 07:58N 45°32' W 122°41'0 0.0
2018-Jun-17 07:25N 45°32' W 122°41'0 0.0
2018-Jun-17 06:46N 45°32' W 122°41'0 0.0
2018-Jun-17 06:22N 45°32' W 122°41'0 0.0
2018-Jun-17 05:58N 45°32' W 122°41'0 0.0
2018-Jun-17 05:28N 45°32' W 122°41'0 0.0
2018-Jun-17 04:58N 45°32' W 122°41'0 0.0
2018-Jun-17 04:25N 45°32' W 122°41'0 0.0
2018-Jun-17 03:55N 45°32' W 122°41'0 0.0
2018-Jun-17 03:28N 45°32' W 122°41'0 0.0
2018-Jun-17 02:49N 45°32' W 122°41'0 0.0
2018-Jun-17 02:25N 45°32' W 122°41'0 0.0
2018-Jun-17 01:37N 45°32' W 122°41'0 0.0
2018-Jun-17 01:28N 45°32' W 122°41'0 0.0
2018-Jun-17 00:55N 45°32' W 122°41'0 0.0
2018-Jun-17 00:25N 45°32' W 122°41'0 0.0
2018-Jun-16 23:58N 45°32' W 122°41'0 0.0
2018-Jun-16 23:28N 45°32' W 122°41'0 0.0
2018-Jun-16 22:58N 45°32' W 122°41'0 0.0
2018-Jun-16 22:28N 45°32' W 122°41'0 0.0
2018-Jun-16 21:55N 45°32' W 122°41'0 0.0
2018-Jun-16 21:28N 45°32' W 122°41'0 0.0
2018-Jun-16 20:58N 45°32' W 122°41'0 0.0
2018-Jun-16 20:25N 45°32' W 122°41'0 0.0
2018-Jun-16 19:58N 45°32' W 122°41'0 0.0
2018-Jun-16 19:28N 45°32' W 122°41'0 0.0
2018-Jun-16 18:58N 45°32' W 122°41'0 0.0
2018-Jun-16 18:28N 45°32' W 122°41'0 0.1
2018-Jun-16 17:55N 45°32' W 122°41'0 0.1
2018-Jun-16 17:28N 45°32' W 122°41'0 0.0
2018-Jun-16 16:55N 45°32' W 122°41'0 0.0
2018-Jun-16 16:25N 45°32' W 122°41'0 0.0
2018-Jun-16 15:58N 45°32' W 122°41'0 0.0
2018-Jun-16 15:28N 45°32' W 122°41'0 0.0
2018-Jun-16 14:55N 45°32' W 122°41'0 0.0
2018-Jun-16 14:28N 45°32' W 122°41'0 0.0
2018-Jun-16 13:58N 45°32' W 122°41'0 0.0
2018-Jun-16 13:28N 45°32' W 122°41'0 0.0
2018-Jun-16 12:58N 45°32' W 122°41'0 0.0
2018-Jun-16 12:28N 45°32' W 122°41'0 0.0
2018-Jun-16 11:55N 45°32' W 122°41'0 0.0
2018-Jun-16 11:28N 45°32' W 122°41'0 0.0
2018-Jun-16 10:58N 45°32' W 122°41'0 0.0
2018-Jun-16 10:25N 45°32' W 122°41'0 0.0
2018-Jun-16 09:58N 45°32' W 122°41'0 0.0
2018-Jun-16 09:28N 45°32' W 122°41'0 0.0
2018-Jun-16 08:58N 45°32' W 122°41'0 0.0
2018-Jun-16 08:25N 45°32' W 122°41'0 0.0
2018-Jun-16 07:55N 45°32' W 122°41'0 0.0
2018-Jun-16 07:25N 45°32' W 122°41'0 0.0
2018-Jun-16 06:58N 45°32' W 122°41'0 0.0
2018-Jun-16 06:28N 45°32' W 122°41'0 0.0
2018-Jun-16 05:58N 45°32' W 122°41'0 0.0
2018-Jun-16 05:28N 45°32' W 122°41'0 0.0
2018-Jun-16 04:55N 45°32' W 122°41'0 0.0
2018-Jun-16 04:25N 45°32' W 122°41'0 0.0
2018-Jun-16 03:55N 45°32' W 122°41'0 0.0
2018-Jun-16 03:28N 45°32' W 122°41'0 0.0
2018-Jun-16 02:58N 45°32' W 122°41'0 0.0
2018-Jun-16 02:28N 45°32' W 122°41'0 0.0
2018-Jun-16 01:55N 45°32' W 122°41'0 0.0
2018-Jun-16 01:28N 45°32' W 122°41'0 0.0
2018-Jun-16 00:58N 45°32' W 122°41'0 0.0
2018-Jun-16 00:25N 45°32' W 122°41'0 0.0
2018-Jun-15 23:58N 45°32' W 122°41'0 0.0
2018-Jun-15 23:28N 45°32' W 122°41'0 0.0
2018-Jun-15 22:55N 45°32' W 122°41'0 0.0
2018-Jun-15 22:28N 45°32' W 122°41'0 0.0
2018-Jun-15 21:58N 45°32' W 122°41'0 0.0
2018-Jun-15 21:25N 45°32' W 122°41'0 0.0
2018-Jun-15 20:58N 45°32' W 122°41'0 0.0
2018-Jun-15 20:25N 45°32' W 122°41'0 0.0
2018-Jun-15 19:49N 45°32' W 122°41'0 0.0
2018-Jun-15 19:25N 45°32' W 122°41'0 0.0
2018-Jun-15 18:55N 45°32' W 122°41'0 0.0
2018-Jun-15 18:22N 45°32' W 122°41'0 0.0
2018-Jun-15 17:55N 45°32' W 122°41'0 0.0
2018-Jun-15 17:25N 45°32' W 122°41'0 0.0
2018-Jun-15 16:55N 45°32' W 122°41'0 0.0
2018-Jun-15 16:28N 45°32' W 122°41'0 0.0
2018-Jun-15 15:55N 45°32' W 122°41'0 0.0
2018-Jun-15 15:28N 45°32' W 122°41'0 0.0
2018-Jun-15 14:58N 45°32' W 122°41'0 0.0
2018-Jun-15 14:28N 45°32' W 122°41'0 0.0
2018-Jun-15 13:55N 45°32' W 122°41'0 0.0
2018-Jun-15 13:28N 45°32' W 122°41'0 0.0
2018-Jun-15 12:58N 45°32' W 122°41'0 0.0
2018-Jun-15 12:28N 45°32' W 122°41'0 0.0
2018-Jun-15 11:55N 45°32' W 122°41'0 0.0
2018-Jun-15 11:28N 45°32' W 122°41'0 0.0
2018-Jun-15 10:58N 45°32' W 122°41'0 0.0
2018-Jun-15 10:25N 45°32' W 122°41'0 0.0
2018-Jun-15 09:55N 45°32' W 122°41'0 0.0
2018-Jun-15 09:28N 45°32' W 122°41'0 0.0
2018-Jun-15 08:55N 45°32' W 122°41'0 0.0
2018-Jun-15 08:28N 45°32' W 122°41'0 0.0
2018-Jun-15 07:58N 45°32' W 122°41'0 0.0
2018-Jun-15 07:25N 45°32' W 122°41'0 0.0
2018-Jun-15 06:55N 45°32' W 122°41'0 0.0
2018-Jun-15 06:25N 45°32' W 122°41'0 0.0
2018-Jun-15 05:58N 45°32' W 122°41'0 0.0
2018-Jun-15 05:25N 45°32' W 122°41'0 0.0
2018-Jun-15 04:55N 45°32' W 122°41'0 0.0
2018-Jun-15 04:28N 45°32' W 122°41'0 0.0
2018-Jun-15 03:58N 45°32' W 122°41'0 0.0
2018-Jun-15 03:25N 45°32' W 122°41'0 0.0
2018-Jun-15 02:58N 45°32' W 122°41'0 0.0
2018-Jun-15 02:28N 45°32' W 122°41'0 0.0
2018-Jun-15 01:55N 45°32' W 122°41'0 0.0
2018-Jun-15 01:25N 45°32' W 122°41'0 0.0
2018-Jun-15 00:55N 45°32' W 122°41'0 0.0
2018-Jun-15 00:28N 45°32' W 122°41'0 0.0
2018-Jun-14 23:49N 45°32' W 122°41'0 0.0
2018-Jun-14 23:25N 45°32' W 122°41'0 0.0
2018-Jun-14 22:58N 45°32' W 122°41'0 0.0
2018-Jun-14 22:22N 45°32' W 122°41'0 0.0
2018-Jun-14 21:58N 45°32' W 122°41'0 0.0
2018-Jun-14 21:22N 45°32' W 122°41'0 0.0
2018-Jun-14 20:58N 45°32' W 122°41'0 0.0
2018-Jun-14 20:28N 45°32' W 122°41'0 0.0
2018-Jun-14 19:55N 45°32' W 122°41'0 0.0
2018-Jun-14 19:28N 45°32' W 122°41'0 0.0
2018-Jun-14 18:55N 45°32' W 122°41'0 0.0
2018-Jun-14 18:25N 45°32' W 122°41'0 0.0
2018-Jun-14 17:55N 45°32' W 122°41'0 0.0
2018-Jun-14 17:28N 45°32' W 122°41'0 0.0
2018-Jun-14 16:55N 45°32' W 122°41'0 0.0
2018-Jun-14 16:25N 45°32' W 122°41'0 0.0
2018-Jun-14 15:58N 45°32' W 122°41'0 0.0
2018-Jun-14 15:25N 45°32' W 122°41'0 0.0
2018-Jun-14 14:55N 45°32' W 122°41'0 0.0
2018-Jun-14 14:25N 45°32' W 122°41'0 0.0
2018-Jun-14 13:58N 45°32' W 122°41'0 0.0
2018-Jun-14 13:25N 45°32' W 122°41'0 0.0
2018-Jun-14 12:58N 45°32' W 122°41'0 0.0
2018-Jun-14 12:28N 45°32' W 122°41'0 0.0
2018-Jun-14 11:58N 45°32' W 122°41'0 0.0
2018-Jun-14 11:25N 45°32' W 122°41'0 0.0
2018-Jun-14 10:55N 45°32' W 122°41'0 0.0
2018-Jun-14 10:25N 45°32' W 122°41'0 0.0
2018-Jun-14 09:55N 45°32' W 122°41'0 0.0
2018-Jun-14 09:28N 45°32' W 122°41'0 0.0
2018-Jun-14 08:58N 45°32' W 122°41'0 0.0
2018-Jun-14 08:28N 45°32' W 122°41'0 0.0
2018-Jun-14 07:55N 45°32' W 122°41'0 0.0
2018-Jun-14 07:28N 45°32' W 122°41'0 0.0
2018-Jun-14 06:58N 45°32' W 122°41'0 0.0
2018-Jun-14 06:28N 45°32' W 122°41'0 0.0
2018-Jun-14 05:55N 45°32' W 122°41'0 0.0
2018-Jun-14 05:25N 45°32' W 122°41'0 0.0
2018-Jun-14 04:58N 45°32' W 122°41'0 0.0
2018-Jun-14 04:28N 45°32' W 122°41'0 0.0
2018-Jun-14 03:58N 45°32' W 122°41'0 0.0
2018-Jun-14 03:25N 45°32' W 122°41'0 0.0
2018-Jun-14 02:55N 45°32' W 122°41'0 0.0
2018-Jun-14 02:25N 45°32' W 122°41'0 0.0
2018-Jun-14 01:55N 45°32' W 122°41'0 0.0
2018-Jun-14 01:28N 45°32' W 122°41'0 0.0
2018-Jun-14 00:55N 45°32' W 122°41'0 0.0
2018-Jun-14 00:28N 45°32' W 122°41'0 0.0
2018-Jun-13 23:58N 45°32' W 122°41'0 0.0
2018-Jun-13 23:28N 45°32' W 122°41'0 0.0
2018-Jun-13 22:55N 45°32' W 122°41'0 0.0
2018-Jun-13 22:25N 45°32' W 122°41'0 0.0
2018-Jun-13 21:58N 45°32' W 122°41'0 0.0
2018-Jun-13 21:25N 45°32' W 122°41'0 0.0
2018-Jun-13 20:58N 45°32' W 122°41'0 0.0
2018-Jun-13 20:25N 45°32' W 122°41'0 0.0
2018-Jun-13 19:58N 45°32' W 122°41'0 0.0
2018-Jun-13 19:28N 45°32' W 122°41'0 0.0
2018-Jun-13 18:58N 45°32' W 122°41'0 0.0
2018-Jun-13 18:25N 45°32' W 122°41'0 0.0
2018-Jun-13 17:55N 45°32' W 122°41'0 0.0
2018-Jun-13 17:25N 45°32' W 122°41'0 0.0
2018-Jun-13 16:55N 45°32' W 122°41'0 0.0
2018-Jun-13 16:28N 45°32' W 122°41'0 0.0
2018-Jun-13 15:55N 45°32' W 122°41'0 0.0
2018-Jun-13 15:28N 45°32' W 122°41'0 0.0
2018-Jun-13 14:58N 45°32' W 122°41'0 0.0
2018-Jun-13 14:28N 45°32' W 122°41'0 0.0
2018-Jun-13 13:55N 45°32' W 122°41'0 0.0
2018-Jun-13 13:28N 45°32' W 122°41'0 0.0
2018-Jun-13 12:55N 45°32' W 122°41'0 0.0
2018-Jun-13 12:28N 45°32' W 122°41'0 0.0
2018-Jun-13 11:55N 45°32' W 122°41'0 0.0
2018-Jun-13 11:28N 45°32' W 122°41'0 0.0
2018-Jun-13 10:55N 45°32' W 122°41'0 0.0
2018-Jun-13 10:25N 45°32' W 122°41'0 0.0
2018-Jun-13 09:55N 45°32' W 122°41'0 0.0
2018-Jun-13 09:25N 45°32' W 122°41'0 0.0
2018-Jun-13 08:55N 45°32' W 122°41'0 0.0
2018-Jun-13 08:28N 45°32' W 122°41'0 0.0
2018-Jun-13 07:58N 45°32' W 122°41'0 0.0
2018-Jun-13 07:25N 45°32' W 122°41'0 0.0
2018-Jun-13 06:55N 45°32' W 122°41'0 0.0
2018-Jun-13 06:25N 45°32' W 122°41'0 0.0
2018-Jun-13 05:55N 45°32' W 122°41'0 0.0
2018-Jun-13 05:28N 45°32' W 122°41'0 0.0
2018-Jun-13 04:55N 45°32' W 122°41'0 0.0
2018-Jun-13 04:28N 45°32' W 122°41'0 0.0
2018-Jun-13 03:55N 45°32' W 122°41'0 0.0
2018-Jun-13 03:25N 45°32' W 122°41'0 0.0
2018-Jun-13 02:58N 45°32' W 122°41'0 0.0
2018-Jun-13 02:25N 45°32' W 122°41'0 0.0
2018-Jun-13 01:55N 45°32' W 122°41'0 0.0
2018-Jun-13 01:25N 45°32' W 122°41'0 0.0
2018-Jun-13 00:55N 45°32' W 122°41'0 0.0
2018-Jun-13 00:25N 45°32' W 122°41'0 0.0
2018-Jun-12 23:58N 45°32' W 122°41'0 0.0
2018-Jun-12 23:28N 45°32' W 122°41'0 0.0
2018-Jun-12 22:55N 45°32' W 122°41'0 0.0
2018-Jun-12 22:28N 45°32' W 122°41'0 0.0
2018-Jun-12 21:58N 45°32' W 122°41'0 0.0
2018-Jun-12 21:25N 45°32' W 122°41'0 0.0
2018-Jun-12 20:58N 45°32' W 122°41'0 0.0
2018-Jun-12 20:28N 45°32' W 122°41'0 0.0
2018-Jun-12 19:55N 45°32' W 122°41'0 0.0
2018-Jun-12 19:28N 45°32' W 122°41'  

Dump ship's entire track history